Time;durP1;ratioP1;P1;durP2;ratioP2;P2;SDS_P1;SDS_P2;PMS_P1;PMS_P2;Temp;Humidity;BMP_temperature;BMP_pressure;BME280_temperature;BME280_humidity;BME280_pressure;Samples;Min_cycle;Max_cycle;Signal;HPM_P1;HPM_P2
2021/12/17 00:00:46;;;;;;;84.03;53.60;;;;;;;7.79;55.58;102055.41;4952475;28;20421;-64
2021/12/17 00:03:20;;;;;;;74.70;45.70;;;;;;;7.72;55.80;102048.69;4952050;28;20417;-63
2021/12/17 00:06:13;;;;;;;31.27;22.60;;;;;;;7.88;55.29;102042.69;4951696;28;20926;-64
2021/12/17 00:08:41;;;;;;;35.60;28.70;;;;;;;8.07;55.06;102054.03;4951972;28;20933;-64
2021/12/17 00:11:10;;;;;;;61.83;56.43;;;;;;;8.18;54.83;102042.91;4952338;28;20488;-64
2021/12/17 00:13:38;;;;;;;25.27;20.67;;;;;;;8.34;54.02;102040.31;4951919;28;20803;-64
2021/12/17 00:16:14;;;;;;;49.75;36.45;;;;;;;8.29;54.23;102044.97;4952340;28;20449;-64
2021/12/17 00:18:54;;;;;;;28.48;22.25;;;;;;;8.38;54.18;102052.44;4952048;28;20436;-64
2021/12/17 00:49:40;;;;;;;21.40;18.02;;;;;;;8.50;53.27;102078.22;5099954;28;20429;-64
2021/12/17 00:52:07;;;;;;;15.98;13.25;;;;;;;8.47;53.26;102073.09;5088727;28;20513;-64
2021/12/17 00:54:38;;;;;;;12.98;10.00;;;;;;;8.46;53.38;102073.19;5088670;28;20456;-64
2021/12/17 00:57:10;;;;;;;10.00;8.57;;;;;;;8.58;53.12;102081.31;5111503;28;20464;-64
2021/12/17 00:59:38;;;;;;;9.63;8.13;;;;;;;8.62;53.16;102076.75;5127509;27;20421;-64
2021/12/17 01:02:09;;;;;;;8.82;7.68;;;;;;;8.66;52.74;102082.69;5127433;28;20502;-64
2021/12/17 01:04:39;;;;;;;10.52;7.88;;;;;;;8.71;52.86;102084.16;5127654;27;20410;-64
2021/12/17 01:07:07;;;;;;;13.15;10.10;;;;;;;8.68;52.59;102099.31;5127386;27;20485;-64
2021/12/17 01:09:35;;;;;;;8.40;6.95;;;;;;;8.80;52.84;102101.34;5127658;28;20415;-64
2021/12/17 01:12:02;;;;;;;8.00;6.63;;;;;;;8.73;53.32;102099.94;5127211;27;20560;-64
2021/12/17 01:14:31;;;;;;;14.75;12.63;;;;;;;8.76;53.72;102102.44;5127153;27;21002;-65
2021/12/17 01:16:58;;;;;;;55.30;41.28;;;;;;;8.81;53.78;102103.03;5127467;28;20836;-64
2021/12/17 01:19:44;;;;;;;15.33;11.67;;;;;;;8.89;54.04;102098.19;5127151;28;20860;-64
2021/12/17 01:22:41;;;;;;;13.63;11.07;;;;;;;8.80;54.66;102094.25;5127700;28;20472;-64
2021/12/17 01:25:07;;;;;;;9.60;8.23;;;;;;;8.92;54.55;102090.09;5126807;28;20510;-64
2021/12/17 01:35:51;;;;;;;6.45;5.70;;;;;;;8.57;57.13;102079.59;5092006;28;20448;-65
2021/12/17 01:41:36;;;;;;;11.68;10.57;;;;;;;8.53;58.06;102056.06;5127081;28;20740;-65
2021/12/17 01:44:06;;;;;;;5.72;5.13;;;;;;;8.54;58.16;102052.53;5126689;28;20436;-65
2021/12/17 01:46:36;;;;;;;5.55;4.32;;;;;;;8.32;58.71;102050.97;5126966;28;20449;-65
2021/12/17 01:49:23;;;;;;;17.48;16.00;;;;;;;8.38;58.94;102047.16;5126576;28;20859;-64
2021/12/17 02:00:15;;;;;;;14.32;12.40;;;;;;;8.33;59.26;102039.47;5112805;28;20467;-64
2021/12/17 02:02:46;;;;;;;9.82;7.68;;;;;;;8.40;59.05;102021.53;5112913;28;20457;-65
2021/12/17 02:05:14;;;;;;;11.88;9.90;;;;;;;8.23;59.43;102019.75;5112913;28;20424;-65
2021/12/17 02:07:44;;;;;;;9.35;7.35;;;;;;;8.11;59.83;102015.97;5112884;28;20418;-64
2021/12/17 02:19:24;;;;;;;10.90;8.60;;;;;;;8.33;59.30;102018.34;5112392;28;20396;-64
2021/12/17 02:32:38;;;;;;;15.70;12.30;;;;;;;8.85;58.00;101992.72;5100840;28;20412;-65
2021/12/17 02:35:24;;;;;;;12.77;10.52;;;;;;;8.80;58.20;101990.34;5112019;28;20412;-65
2021/12/17 02:37:53;;;;;;;9.02;7.80;;;;;;;8.52;58.64;101989.19;5112439;28;20411;-65
2021/12/17 02:45:46;;;;;;;11.80;10.57;;;;;;;8.49;59.13;101984.06;5112043;28;20446;-64
2021/12/17 02:48:16;;;;;;;7.90;6.72;;;;;;;8.35;59.02;101971.59;5111783;28;20416;-64
2021/12/17 02:50:47;;;;;;;11.02;8.55;;;;;;;8.28;59.93;101983.41;5111576;28;20411;-65
2021/12/17 02:53:16;;;;;;;10.38;9.27;;;;;;;8.34;59.56;101982.25;5111843;28;20780;-64
2021/12/17 02:55:46;;;;;;;9.07;8.10;;;;;;;8.58;58.92;101975.66;5111610;28;20404;-65
2021/12/17 02:58:13;;;;;;;11.50;9.20;;;;;;;8.71;58.40;101980.28;5111798;28;20511;-64
2021/12/17 03:00:43;;;;;;;10.70;8.15;;;;;;;8.50;58.75;101967.31;5111918;28;20412;-65
2021/12/17 03:03:11;;;;;;;11.23;8.70;;;;;;;8.67;58.60;101973.47;5111753;28;20486;-65
2021/12/17 03:05:41;;;;;;;20.05;16.05;;;;;;;8.50;58.81;101966.47;5111260;28;20932;-65
2021/12/17 03:08:12;;;;;;;40.75;28.17;;;;;;;8.69;58.22;101971.59;5110509;28;20411;-64
2021/12/17 03:10:42;;;;;;;20.88;18.55;;;;;;;8.75;58.34;101969.44;5111194;28;20407;-65
2021/12/17 03:13:10;;;;;;;33.65;30.75;;;;;;;8.68;58.13;101961.94;5111550;28;20431;-65
2021/12/17 03:15:42;;;;;;;14.40;12.90;;;;;;;8.75;58.14;101958.88;5111172;28;20976;-64
2021/12/17 03:23:41;;;;;;;19.80;17.77;;;;;;;8.61;58.13;101941.13;5111271;28;20521;-65
2021/12/17 03:26:11;;;;;;;16.63;14.93;;;;;;;8.62;58.15;101947.31;5111249;28;20427;-65
2021/12/17 03:28:41;;;;;;;23.00;20.10;;;;;;;8.68;57.83;101943.44;5111517;28;20408;-65
2021/12/17 03:31:09;;;;;;;19.30;14.93;;;;;;;8.52;58.19;101941.66;5111274;28;20418;-65
2021/12/17 03:33:41;;;;;;;20.90;18.70;;;;;;;8.60;57.85;101946.53;5111200;28;20426;-65
2021/12/17 03:36:08;;;;;;;19.88;17.63;;;;;;;8.60;57.85;101934.16;5110829;28;20410;-64
2021/12/17 03:38:36;;;;;;;19.10;17.10;;;;;;;8.70;57.59;101937.16;5110813;28;20422;-64
2021/12/17 03:41:18;;;;;;;19.48;16.92;;;;;;;8.79;57.20;101925.22;5111124;28;20447;-66
2021/12/17 03:43:47;;;;;;;20.83;18.60;;;;;;;8.75;57.35;101926.31;5110663;28;20411;-65
2021/12/17 03:46:14;;;;;;;22.20;20.00;;;;;;;8.66;57.26;101918.91;5110398;28;20919;-65
2021/12/17 03:48:42;;;;;;;25.02;22.42;;;;;;;8.54;57.67;101916.00;5110912;28;20403;-64
2021/12/17 03:51:14;;;;;;;16.30;14.57;;;;;;;8.59;57.42;101913.97;5110500;28;20490;-65
2021/12/17 03:53:42;;;;;;;16.97;14.87;;;;;;;8.52;57.45;101907.31;5110532;28;20444;-65
2021/12/17 03:56:09;;;;;;;29.42;26.55;;;;;;;8.52;57.30;101902.03;5110368;28;20494;-65
2021/12/17 03:58:37;;;;;;;22.50;20.05;;;;;;;8.39;57.52;101916.81;5110590;28;20408;-65
2021/12/17 04:01:06;;;;;;;21.25;19.08;;;;;;;8.40;57.48;101922.00;5110282;28;20855;-64
2021/12/17 04:03:33;;;;;;;16.92;14.93;;;;;;;8.39;57.34;101919.44;5110320;28;20414;-65
2021/12/17 04:06:01;;;;;;;14.90;12.35;;;;;;;8.35;57.39;101915.28;5110198;28;20428;-65
2021/12/17 04:08:28;;;;;;;18.80;16.77;;;;;;;8.32;57.39;101910.19;5110563;28;20434;-64
2021/12/17 04:11:03;;;;;;;19.73;17.73;;;;;;;8.26;57.44;101919.28;5110047;28;20919;-65
2021/12/17 04:13:33;;;;;;;21.95;19.67;;;;;;;8.19;57.55;101905.56;5110412;28;20407;-64
2021/12/17 04:16:03;;;;;;;20.58;18.50;;;;;;;8.11;57.63;101896.31;5110177;28;20410;-65
2021/12/17 04:18:33;;;;;;;14.73;12.40;;;;;;;7.97;58.16;101890.00;5110339;28;20415;-65
2021/12/17 04:21:02;;;;;;;15.15;13.55;;;;;;;8.06;57.88;101896.59;5110072;28;20400;-64
2021/12/17 04:23:31;;;;;;;13.85;11.80;;;;;;;8.01;58.05;101890.72;5110115;28;20956;-65
2021/12/17 04:25:59;;;;;;;15.43;13.18;;;;;;;8.09;57.78;101907.00;5109787;28;20431;-65
2021/12/17 04:28:25;;;;;;;19.38;15.85;;;;;;;8.09;57.69;101904.34;5109845;28;20983;-64
2021/12/17 04:30:53;;;;;;;21.95;18.83;;;;;;;8.07;57.71;101894.78;5110243;28;20408;-64
2021/12/17 04:33:20;;;;;;;15.98;14.13;;;;;;;8.01;57.91;101909.19;5110204;28;20408;-64
2021/12/17 04:35:48;;;;;;;28.15;25.75;;;;;;;8.01;57.87;101909.19;5109869;28;20862;-65
2021/12/17 04:38:16;;;;;;;16.58;14.95;;;;;;;7.98;58.03;101909.34;5110230;28;20406;-64
2021/12/17 04:40:44;;;;;;;14.68;13.18;;;;;;;7.97;57.90;101908.47;5110157;28;20412;-64
2021/12/17 04:43:21;;;;;;;12.80;11.57;;;;;;;7.89;58.42;101912.47;5109843;28;20443;-65
2021/12/17 04:45:57;;;;;;;18.67;17.00;;;;;;;7.90;58.40;101901.81;5109855;28;20951;-64
2021/12/17 04:59:22;;;;;;;16.08;14.57;;;;;;;7.97;57.95;101915.56;5102245;28;20403;-65
2021/12/17 05:01:49;;;;;;;21.80;19.83;;;;;;;7.91;58.01;101914.09;5109673;28;20753;-65
2021/12/17 05:04:16;;;;;;;13.35;11.68;;;;;;;7.85;58.30;101903.84;5109559;28;20411;-65
2021/12/17 05:06:44;;;;;;;12.60;11.35;;;;;;;7.75;58.42;101903.47;5109452;28;20506;-65
2021/12/17 05:09:28;;;;;;;11.60;9.87;;;;;;;7.77;58.50;101906.88;5109787;28;20396;-65
2021/12/17 05:20:24;;;;;;;11.88;10.57;;;;;;;7.83;58.16;101905.72;5109497;28;20957;-65
2021/12/17 05:22:57;;;;;;;12.50;10.95;;;;;;;7.77;58.36;101917.44;5109570;28;20438;-65
2021/12/17 05:25:26;;;;;;;12.57;10.73;;;;;;;7.87;58.13;101919.59;5109607;28;20536;-64
2021/12/17 05:27:55;;;;;;;10.90;9.13;;;;;;;7.82;58.11;101923.31;5047861;28;21282;-67
2021/12/17 05:30:22;;;;;;;11.80;10.05;;;;;;;7.93;57.75;101914.84;5063984;28;20899;-66
2021/12/17 05:32:49;;;;;;;10.52;8.68;;;;;;;7.87;57.90;101909.03;5068865;28;20509;-65
2021/12/17 05:35:16;;;;;;;11.25;9.68;;;;;;;7.85;57.89;101906.50;5071331;28;20502;-66
2021/12/17 05:37:44;;;;;;;12.30;9.18;;;;;;;7.87;57.98;101911.66;5070734;28;20498;-65
2021/12/17 05:40:13;;;;;;;12.27;10.10;;;;;;;7.88;57.95;101908.09;5068849;28;20410;-65
2021/12/17 05:42:41;;;;;;;11.68;9.40;;;;;;;7.94;57.69;101905.16;5067951;28;20478;-65
2021/12/17 05:45:21;;;;;;;12.40;11.02;;;;;;;7.89;57.79;101902.75;5075466;28;20428;-64
2021/12/17 05:47:48;;;;;;;12.82;10.95;;;;;;;7.87;57.77;101903.75;5091865;28;20799;-65
2021/12/17 05:50:15;;;;;;;13.17;11.37;;;;;;;7.87;57.75;101904.63;5092251;28;20995;-65
2021/12/17 05:52:42;;;;;;;11.55;9.95;;;;;;;7.95;57.50;101902.44;5092901;28;20444;-65
2021/12/17 05:55:10;;;;;;;14.95;11.20;;;;;;;7.91;57.53;101902.69;5092277;28;20937;-65
2021/12/17 05:57:38;;;;;;;12.65;10.43;;;;;;;7.97;57.38;101907.66;5092238;28;20480;-65
2021/12/17 06:00:07;;;;;;;14.32;11.65;;;;;;;7.93;57.37;101906.94;5092290;28;20481;-65
2021/12/17 06:02:34;;;;;;;16.55;13.57;;;;;;;8.01;57.00;101903.91;5092347;28;20414;-64
2021/12/17 06:05:01;;;;;;;16.02;14.30;;;;;;;7.99;57.21;101895.22;5092128;28;20413;-65
2021/12/17 06:07:28;;;;;;;13.03;10.27;;;;;;;8.08;56.75;101900.00;5091965;28;20908;-65
2021/12/17 06:09:58;;;;;;;12.63;10.57;;;;;;;8.20;56.51;101904.59;5091938;28;20901;-65
2021/12/17 06:12:25;;;;;;;12.38;10.07;;;;;;;8.44;55.63;101901.63;5091929;28;20409;-65
2021/12/17 06:14:53;;;;;;;23.63;19.67;;;;;;;8.52;55.29;101896.75;5092494;28;20409;-65
2021/12/17 06:17:20;;;;;;;89.05;55.03;;;;;;;9.71;52.69;101892.56;5091801;28;20925;-65
2021/12/17 06:19:47;;;;;;;65.77;43.50;;;;;;;11.47;48.41;101898.16;5092159;28;20547;-66
2021/12/17 06:22:15;;;;;;;56.90;41.05;;;;;;;12.96;44.85;101892.97;5073709;28;20412;-65
2021/12/17 06:24:45;;;;;;;42.28;32.53;;;;;;;13.89;42.42;101894.81;5091451;28;20443;-65
2021/12/17 06:27:12;;;;;;;28.48;23.50;;;;;;;14.80;40.31;101891.97;5091519;28;20424;-65
2021/12/17 06:29:39;;;;;;;26.15;20.20;;;;;;;15.74;38.38;101886.78;5091635;28;20496;-64
2021/12/17 06:32:09;;;;;;;16.98;14.85;;;;;;;16.45;36.70;101891.28;5091852;28;20405;-65
2021/12/17 06:34:36;;;;;;;17.55;13.98;;;;;;;17.15;35.31;101897.47;5091760;28;20775;-64
2021/12/17 06:37:03;;;;;;;15.38;13.60;;;;;;;18.28;33.15;101887.72;5091378;28;20496;-64
2021/12/17 06:39:30;;;;;;;12.47;10.73;;;;;;;19.01;31.91;101895.75;5091212;28;20413;-64
2021/12/17 06:41:57;;;;;;;7.50;6.80;;;;;;;19.96;30.24;101897.81;5091206;28;20416;-65
2021/12/17 06:44:26;;;;;;;17.43;15.63;;;;;;;21.03;28.43;101893.63;5091239;28;20496;-64
2021/12/17 06:46:59;;;;;;;41.85;38.25;;;;;;;21.95;27.33;101887.97;5091153;28;20421;-64
2021/12/17 06:49:42;;;;;;;18.25;16.42;;;;;;;22.49;26.35;101884.56;5091480;28;20413;-64
2021/12/17 06:55:04;;;;;;;21.03;19.03;;;;;;;23.95;24.41;101888.94;5091270;28;21323;-65
2021/12/17 07:00:23;;;;;;;11.48;10.38;;;;;;;19.37;29.32;101879.59;5088213;28;20416;-64
2021/12/17 07:11:33;;;;;;;10.32;9.23;;;;;;;15.87;35.74;101891.06;5081704;28;20408;-65
2021/12/17 07:17:14;;;;;;;8.48;7.40;;;;;;;19.52;30.73;101887.09;5090818;28;20424;-64
2021/12/17 07:20:35;;;;;;;9.40;8.40;;;;;;;22.74;26.40;101888.78;5090949;28;20417;-66
2021/12/17 07:23:01;;;;;;;70.95;63.45;;;;;;;24.42;23.75;101884.97;5090454;28;20406;-65
2021/12/17 07:28:33;;;;;;;23.98;21.48;;;;;;;27.08;21.13;101880.41;5090652;28;20424;-67
2021/12/17 07:33:47;;;;;;;7.05;6.45;;;;;;;28.66;19.02;101873.97;5090681;28;20437;-66
2021/12/17 07:36:16;;;;;;;6.07;5.53;;;;;;;28.55;18.77;101872.78;5090588;28;20409;-65
2021/12/17 07:38:48;;;;;;;6.25;5.60;;;;;;;29.02;18.33;101877.06;5090677;28;20462;-66
2021/12/17 07:41:15;;;;;;;9.25;8.40;;;;;;;28.51;18.55;101870.72;5090973;28;20471;-65
2021/12/17 07:43:52;;;;;;;6.45;5.85;;;;;;;24.80;22.58;101873.94;5090206;28;20501;-65
2021/12/17 07:46:20;;;;;;;14.00;12.53;;;;;;;25.19;22.10;101865.31;5090226;28;20439;-65
2021/12/17 07:48:48;;;;;;;6.80;6.20;;;;;;;28.64;19.02;101872.50;5090155;28;20504;-65
2021/12/17 07:51:17;;;;;;;8.27;7.45;;;;;;;30.11;17.67;101853.72;5090034;28;20412;-65
2021/12/17 07:53:46;;;;;;;5.68;5.00;;;;;;;30.69;16.85;101854.19;5090419;28;20492;-65
2021/12/17 07:56:17;;;;;;;4.30;3.90;;;;;;;30.77;16.78;101853.03;5089733;28;20439;-65
2021/12/17 07:58:45;;;;;;;5.43;4.93;;;;;;;30.53;16.83;101850.22;5089848;28;20408;-68
2021/12/17 08:01:13;;;;;;;4.27;3.87;;;;;;;29.98;17.19;101842.13;5089861;28;20500;-66
2021/12/17 08:03:41;;;;;;;4.43;3.60;;;;;;;29.98;16.90;101850.31;5090124;28;20534;-65
2021/12/17 08:06:09;;;;;;;11.70;10.60;;;;;;;30.42;16.25;101849.13;5089667;28;20853;-66
2021/12/17 08:08:36;;;;;;;4.50;3.25;;;;;;;29.97;16.87;101849.50;5089760;28;20460;-65
2021/12/17 08:11:05;;;;;;;8.50;7.63;;;;;;;30.78;16.62;101843.72;5090001;28;20452;-65
2021/12/17 08:13:34;;;;;;;4.90;4.40;;;;;;;30.48;16.65;101833.69;5089139;28;20419;-65
2021/12/17 08:16:28;;;;;;;4.50;4.10;;;;;;;30.54;16.54;101830.03;5089972;28;20446;-66
2021/12/17 08:23:09;;;;;;;6.93;4.65;;;;;;;30.31;16.58;101808.91;5089847;28;20428;-64
2021/12/17 08:27:28;;;;;;;3.10;2.80;;;;;;;27.62;18.93;101864.09;5087772;28;20433;-64
2021/12/17 08:30:09;;;;;;;3.25;2.95;;;;;;;23.81;22.31;101844.63;5089731;28;20405;-64
2021/12/17 08:32:36;;;;;;;3.28;2.97;;;;;;;21.14;26.06;101838.56;5089764;28;20417;-64
2021/12/17 08:35:04;;;;;;;3.92;3.35;;;;;;;20.19;27.27;101850.53;5089481;28;20866;-63
2021/12/17 08:37:31;;;;;;;3.72;3.42;;;;;;;25.25;22.13;101854.78;5089290;28;20412;-63
2021/12/17 08:39:59;;;;;;;3.78;3.47;;;;;;;26.37;20.48;101848.28;5089343;28;20443;-65
2021/12/17 08:42:27;;;;;;;3.13;2.83;;;;;;;23.86;23.12;101857.59;5089694;28;20484;-65
2021/12/17 08:44:55;;;;;;;3.58;3.28;;;;;;;23.35;23.78;101869.91;5089238;28;20489;-64
2021/12/17 08:47:22;;;;;;;3.88;3.45;;;;;;;26.33;20.66;101871.47;5089106;28;20428;-66
2021/12/17 08:49:50;;;;;;;4.70;4.30;;;;;;;27.11;19.73;101860.97;5088977;28;20760;-64
2021/12/17 08:52:18;;;;;;;6.00;5.40;;;;;;;23.03;23.95;101846.72;5088916;28;20417;-64
2021/12/17 08:54:45;;;;;;;4.78;4.22;;;;;;;21.86;25.04;101835.91;5089356;28;20520;-64
2021/12/17 08:57:12;;;;;;;4.97;4.20;;;;;;;20.92;27.03;101829.31;5089900;28;20437;-64
2021/12/17 08:59:40;;;;;;;5.63;4.90;;;;;;;24.87;22.32;101826.03;5089699;28;20408;-64
2021/12/17 09:02:07;;;;;;;7.40;3.70;;;;;;;27.37;19.62;101815.75;5089518;28;20441;-64
2021/12/17 09:04:34;;;;;;;5.80;4.22;;;;;;;28.33;18.32;101814.19;5089114;28;20500;-64
2021/12/17 09:07:01;;;;;;;7.00;4.72;;;;;;;26.32;19.80;101804.59;5090060;28;20878;-64
2021/12/17 09:09:28;;;;;;;7.80;5.17;;;;;;;21.78;25.11;101799.03;5093046;28;20495;-64
2021/12/17 09:11:55;;;;;;;4.53;4.13;;;;;;;19.96;27.61;101784.84;5093273;28;20417;-64
2021/12/17 09:14:22;;;;;;;6.70;4.65;;;;;;;18.62;29.49;101769.03;5092897;28;20519;-63
2021/12/17 09:16:52;;;;;;;6.07;4.28;;;;;;;18.90;29.73;101760.91;5092907;28;20420;-64
2021/12/17 09:19:19;;;;;;;6.25;3.85;;;;;;;22.61;24.72;101758.91;5093205;28;20412;-64
2021/12/17 09:21:46;;;;;;;14.30;7.45;;;;;;;19.18;29.08;101756.22;5092884;28;20415;-64
2021/12/17 09:24:13;;;;;;;12.77;6.55;;;;;;;17.92;30.79;101750.88;5092831;28;20405;-64
2021/12/17 09:26:40;;;;;;;6.95;3.72;;;;;;;16.96;33.05;101734.19;5093122;28;20437;-64
2021/12/17 09:29:07;;;;;;;9.25;4.22;;;;;;;16.16;34.11;101730.78;5092863;28;20906;-63
2021/12/17 09:31:35;;;;;;;8.18;4.13;;;;;;;15.60;35.42;101756.22;5092763;28;20488;-63
2021/12/17 09:34:04;;;;;;;6.68;4.13;;;;;;;15.97;35.04;101763.66;5093502;28;20511;-64
2021/12/17 09:36:31;;;;;;;10.90;4.60;;;;;;;19.04;30.22;101778.28;5092969;28;20432;-65
2021/12/17 09:38:57;;;;;;;8.00;4.10;;;;;;;17.35;32.95;101777.75;5092919;28;20518;-65
2021/12/17 09:41:26;;;;;;;10.90;4.00;;;;;;;16.66;33.97;101786.84;5092342;28;20843;-65
2021/12/17 09:43:54;;;;;;;9.10;4.80;;;;;;;16.50;34.02;101776.69;5092636;28;20417;-65
2021/12/17 09:46:21;;;;;;;8.00;4.00;;;;;;;15.88;35.89;101772.53;5092706;28;20423;-64
2021/12/17 09:48:48;;;;;;;10.35;5.65;;;;;;;15.57;35.99;101754.66;5092199;28;20425;-65
2021/12/17 09:51:20;;;;;;;12.82;6.82;;;;;;;15.12;36.92;101754.13;5092546;28;20415;-65
2021/12/17 09:53:49;;;;;;;5.72;3.80;;;;;;;14.26;38.08;101748.81;5092601;28;20435;-64
2021/12/17 09:56:16;;;;;;;9.75;3.20;;;;;;;13.76;39.05;101733.28;5092382;28;20413;-65
2021/12/17 09:58:43;;;;;;;6.35;3.28;;;;;;;13.61;39.79;101737.19;5092609;28;20503;-64
2021/12/17 10:01:10;;;;;;;4.90;3.30;;;;;;;13.08;40.67;101732.44;5092070;28;20861;-65
2021/12/17 10:03:37;;;;;;;7.07;2.50;;;;;;;12.71;41.74;101716.63;5092230;28;20409;-64
2021/12/17 10:06:06;;;;;;;63.28;45.00;;;;;;;12.37;42.26;101702.38;5092415;28;20497;-64
2021/12/17 10:08:46;;;;;;;7.03;3.50;;;;;;;12.22;43.13;101702.53;5092259;28;20530;-64
2021/12/17 10:11:16;;;;;;;8.45;3.50;;;;;;;12.09;43.77;101707.06;5091521;28;20527;-64
2021/12/17 10:13:43;;;;;;;5.23;3.93;;;;;;;11.88;44.22;101705.94;5091879;28;20463;-64
2021/12/17 10:16:12;;;;;;;4.70;3.10;;;;;;;11.87;44.55;101706.91;5092175;28;21524;-65
2021/12/17 10:18:41;;;;;;;46.30;32.92;;;;;;;11.81;44.95;101716.16;5091442;28;20504;-65
2021/12/17 10:21:09;;;;;;;85.20;52.22;;;;;;;11.99;45.32;101692.78;5091831;28;20906;-64
2021/12/17 10:23:41;;;;;;;67.15;42.17;;;;;;;11.86;45.62;101681.31;5091568;28;20973;-64
2021/12/17 10:26:12;;;;;;;27.73;19.27;;;;;;;11.75;46.15;101703.34;5091773;28;20398;-64
2021/12/17 10:28:53;;;;;;;30.85;21.27;;;;;;;11.57;47.00;101703.69;5091561;28;21069;-65
2021/12/17 10:31:20;;;;;;;9.10;6.97;;;;;;;11.47;47.57;101713.25;5091660;28;20419;-64
2021/12/17 10:33:50;;;;;;;12.05;9.55;;;;;;;11.54;47.74;101730.44;5091659;28;20410;-64
2021/12/17 10:36:17;;;;;;;7.55;5.32;;;;;;;11.56;48.34;101723.22;5091906;28;20428;-64
2021/12/17 10:38:46;;;;;;;7.72;6.13;;;;;;;11.53;48.89;101722.59;5091372;28;20924;-64
2021/12/17 10:41:15;;;;;;;6.30;4.63;;;;;;;11.51;48.64;101722.69;5091392;28;20420;-64
2021/12/17 10:43:49;;;;;;;5.97;4.55;;;;;;;11.40;49.69;101719.97;5091061;28;20515;-65
2021/12/17 10:46:24;;;;;;;9.48;7.57;;;;;;;11.26;50.09;101709.47;5072999;28;20417;-64
2021/12/17 10:48:55;;;;;;;20.55;15.48;;;;;;;11.03;50.87;101719.88;5091205;28;20467;-65
2021/12/17 10:51:32;;;;;;;13.68;10.15;;;;;;;10.93;51.37;101719.66;5091073;28;20779;-65
2021/12/17 10:54:05;;;;;;;12.85;9.02;;;;;;;10.96;51.16;101724.72;5091344;28;20438;-64
2021/12/17 10:56:33;;;;;;;9.25;7.10;;;;;;;11.07;50.77;101721.38;5091132;28;20500;-65
2021/12/17 10:59:03;;;;;;;7.75;6.30;;;;;;;11.13;50.74;101718.28;5091424;28;20424;-64
2021/12/17 11:01:33;;;;;;;14.15;11.68;;;;;;;11.20;50.88;101711.59;5090832;28;20759;-64
2021/12/17 11:04:10;;;;;;;15.90;14.20;;;;;;;11.18;51.00;101699.38;5090846;28;20526;-64
2021/12/17 11:06:51;;;;;;;8.48;6.20;;;;;;;11.18;50.93;101691.44;5090845;28;20409;-64
2021/12/17 11:09:41;;;;;;;12.80;10.90;;;;;;;11.25;50.89;101695.34;5090972;28;20421;-64
2021/12/17 11:12:29;;;;;;;13.85;11.05;;;;;;;11.67;49.65;101679.97;5090674;28;20492;-64
2021/12/17 11:15:09;;;;;;;10.98;8.75;;;;;;;11.82;49.18;101678.88;5090640;28;20781;-64
2021/12/17 11:17:37;;;;;;;11.43;9.80;;;;;;;12.11;48.42;101681.25;5090765;28;20501;-64
2021/12/17 11:20:08;;;;;;;9.65;8.55;;;;;;;12.22;47.52;101681.28;5090900;28;20409;-64
2021/12/17 11:22:36;;;;;;;8.32;7.35;;;;;;;12.33;46.49;101669.03;5090514;28;20413;-64
2021/12/17 11:25:05;;;;;;;8.10;6.32;;;;;;;12.33;45.79;101672.53;5090901;28;20416;-64
2021/12/17 11:27:34;;;;;;;23.30;21.15;;;;;;;12.72;45.50;101667.78;5090489;28;20484;-64
2021/12/17 11:30:01;;;;;;;24.23;21.73;;;;;;;12.57;44.99;101664.50;5089584;28;20500;-64
2021/12/17 11:32:28;;;;;;;7.65;6.35;;;;;;;13.05;43.96;101665.31;5090849;28;20491;-64
2021/12/17 11:34:55;;;;;;;8.95;7.55;;;;;;;13.01;43.99;101665.53;5090544;28;20489;-64
2021/12/17 11:37:23;;;;;;;7.15;5.18;;;;;;;12.82;44.47;101668.78;5090210;28;20415;-65
2021/12/17 11:39:57;;;;;;;5.13;4.05;;;;;;;12.94;43.22;101661.66;5090549;28;20407;-65
2021/12/17 11:42:43;;;;;;;6.82;6.13;;;;;;;12.94;43.65;101664.34;5090525;28;20420;-64
2021/12/17 11:48:18;;;;;;;7.95;6.97;;;;;;;12.85;43.32;101670.34;5074020;28;20950;-64
2021/12/17 11:50:46;;;;;;;5.25;3.70;;;;;;;12.61;43.33;101660.66;5090103;28;20420;-64
2021/12/17 11:53:19;;;;;;;7.45;6.15;;;;;;;12.56;43.58;101664.63;5090040;28;20782;-62
2021/12/17 11:55:47;;;;;;;5.75;5.13;;;;;;;12.70;43.18;101666.22;5090248;28;20413;-64
2021/12/17 11:58:43;;;;;;;6.35;5.00;;;;;;;12.69;43.18;101665.38;5089706;28;20496;-65
2021/12/17 12:01:10;;;;;;;9.50;8.38;;;;;;;12.50;43.01;101671.25;5090207;28;20406;-64
2021/12/17 12:03:37;;;;;;;9.65;7.18;;;;;;;12.38;42.99;101672.16;5089880;28;20993;-64
2021/12/17 12:06:04;;;;;;;5.68;4.45;;;;;;;12.25;43.68;101677.56;5090098;28;20405;-63
2021/12/17 12:08:36;;;;;;;6.57;4.53;;;;;;;12.49;42.87;101684.63;5089890;28;20425;-63
2021/12/17 12:11:09;;;;;;;5.95;4.72;;;;;;;12.42;43.22;101676.28;5089758;28;20412;-63
2021/12/17 12:13:42;;;;;;;8.13;6.68;;;;;;;12.06;43.91;101682.53;5089761;28;20401;-64
2021/12/17 12:16:11;;;;;;;8.30;5.87;;;;;;;12.11;43.92;101683.91;5089847;28;20499;-64
2021/12/17 12:18:49;;;;;;;10.90;8.52;;;;;;;12.42;43.51;101685.09;5089678;28;20986;-64
2021/12/17 12:21:18;;;;;;;10.00;8.77;;;;;;;12.46;43.50;101682.22;5089481;28;20910;-64
2021/12/17 12:23:52;;;;;;;7.13;5.80;;;;;;;12.14;43.55;101675.69;5089543;28;20487;-64
2021/12/17 12:26:34;;;;;;;7.57;5.85;;;;;;;12.32;43.27;101680.59;5089811;28;20484;-64
2021/12/17 12:29:11;;;;;;;7.03;5.97;;;;;;;12.47;42.83;101678.59;5089772;28;20421;-63
2021/12/17 12:31:41;;;;;;;10.10;9.02;;;;;;;12.50;42.91;101679.22;5089403;28;20910;-63
2021/12/17 12:34:11;;;;;;;9.15;8.05;;;;;;;12.59;42.66;101675.88;5089729;28;20493;-63
2021/12/17 12:36:49;;;;;;;7.63;6.82;;;;;;;12.68;42.11;101671.66;5089764;28;20416;-64
2021/12/17 12:39:19;;;;;;;6.35;5.75;;;;;;;12.75;42.04;101661.38;5089061;28;20415;-63
2021/12/17 12:41:48;;;;;;;10.10;7.60;;;;;;;12.51;42.49;101667.63;5089551;28;20496;-64
2021/12/17 12:44:16;;;;;;;12.82;9.27;;;;;;;12.45;42.49;101657.47;5089624;28;20480;-64
2021/12/17 12:46:56;;;;;;;7.90;4.82;;;;;;;12.26;42.77;101671.28;5089761;28;20417;-63
2021/12/17 12:49:45;;;;;;;7.97;7.18;;;;;;;12.02;42.83;101658.88;5089213;28;20425;-64
2021/12/17 12:52:22;;;;;;;5.37;4.23;;;;;;;12.01;42.74;101666.94;5083837;28;20806;-64
2021/12/17 12:54:50;;;;;;;5.47;4.30;;;;;;;11.71;43.38;101664.69;5089477;28;20484;-64
2021/12/17 12:57:27;;;;;;;6.40;4.65;;;;;;;11.67;43.43;101674.69;5089546;28;20405;-63
2021/12/17 12:59:57;;;;;;;6.00;4.38;;;;;;;11.60;43.50;101671.63;5089245;28;20405;-63
2021/12/17 13:02:27;;;;;;;6.20;5.22;;;;;;;11.57;43.59;101674.47;5089589;28;20488;-63
2021/12/17 13:04:55;;;;;;;5.80;5.10;;;;;;;11.57;43.76;101674.47;5089759;28;20436;-63
2021/12/17 13:07:33;;;;;;;5.55;4.10;;;;;;;11.34;44.15;101670.81;5089252;28;20405;-63
2021/12/17 13:10:07;;;;;;;7.70;5.83;;;;;;;11.19;44.35;101663.94;5089148;28;20429;-63
2021/12/17 13:12:35;;;;;;;9.45;7.07;;;;;;;11.20;44.40;101673.59;5089457;28;20405;-63
2021/12/17 13:15:18;;;;;;;10.77;8.85;;;;;;;10.97;44.75;101667.28;5089066;28;20424;-63
2021/12/17 13:21:03;;;;;;;8.13;5.93;;;;;;;10.87;44.79;101660.88;5089092;28;20469;-64
2021/12/17 13:23:33;;;;;;;6.87;5.80;;;;;;;10.73;45.24;101662.69;5089391;28;20416;-64
2021/12/17 13:26:06;;;;;;;9.00;6.93;;;;;;;10.79;44.94;101659.63;5088655;28;20409;-64
2021/12/17 13:28:59;;;;;;;9.98;6.30;;;;;;;10.75;45.12;101668.75;5089256;28;20504;-64
2021/12/17 13:31:48;;;;;;;6.95;5.80;;;;;;;10.82;44.44;101677.94;5089165;28;20413;-65
2021/12/17 13:34:21;;;;;;;11.10;8.05;;;;;;;10.95;44.35;101679.78;5089155;28;20405;-65
2021/12/17 13:37:04;;;;;;;10.55;7.57;;;;;;;10.84;44.91;101677.84;5088791;28;20496;-65
2021/12/17 13:39:34;;;;;;;12.55;9.43;;;;;;;10.91;44.57;101679.13;5088736;28;20492;-65
2021/12/17 13:42:01;;;;;;;9.30;7.37;;;;;;;10.87;44.30;101672.34;5088743;28;20997;-65
2021/12/17 13:44:35;;;;;;;9.70;7.15;;;;;;;10.76;44.44;101674.88;5088517;28;20988;-64
2021/12/17 13:47:16;;;;;;;12.13;8.83;;;;;;;10.80;44.23;101681.66;5088616;28;20500;-65
2021/12/17 13:49:46;;;;;;;11.98;7.97;;;;;;;10.63;44.47;101690.78;5088462;28;20500;-65
2021/12/17 13:52:14;;;;;;;15.30;11.27;;;;;;;10.69;44.25;101700.97;5088633;28;20944;-65